createdAt,value
2023-05-19T00:00:07.000Z,153
2023-05-19T00:01:22.000Z,153
2023-05-19T00:02:37.000Z,153
2023-05-19T00:03:53.000Z,153
2023-05-19T00:05:10.000Z,152
2023-05-19T00:06:26.000Z,154
2023-05-19T00:07:42.000Z,153
2023-05-19T00:08:58.000Z,152
2023-05-19T00:10:15.000Z,153
2023-05-19T00:11:31.000Z,155
2023-05-19T00:12:47.000Z,156
2023-05-19T00:15:19.000Z,156
2023-05-19T00:16:34.000Z,154
2023-05-19T00:17:50.000Z,154
2023-05-19T00:19:06.000Z,152
2023-05-19T00:20:23.000Z,154
2023-05-19T00:21:39.000Z,152
2023-05-19T00:22:55.000Z,154
2023-05-19T00:24:11.000Z,154
2023-05-19T00:25:27.000Z,155
2023-05-19T00:28:00.000Z,154
2023-05-19T00:29:16.000Z,154
2023-05-19T00:30:32.000Z,152
2023-05-19T00:31:49.000Z,155
2023-05-19T00:33:04.000Z,154
2023-05-19T00:34:20.000Z,152
2023-05-19T00:35:36.000Z,153
2023-05-19T00:36:53.000Z,153
2023-05-19T00:38:09.000Z,154
2023-05-19T00:40:41.000Z,152
2023-05-19T00:41:57.000Z,152
2023-05-19T00:43:12.000Z,153
2023-05-19T00:44:28.000Z,152
2023-05-19T00:45:44.000Z,151
2023-05-19T00:47:01.000Z,152
2023-05-19T00:48:17.000Z,152
2023-05-19T00:49:33.000Z,153
2023-05-19T00:52:05.000Z,152
2023-05-19T00:53:22.000Z,152
2023-05-19T00:54:38.000Z,152
2023-05-19T00:55:54.000Z,152
2023-05-19T00:57:10.000Z,152
2023-05-19T00:59:43.000Z,152
2023-05-19T01:00:58.000Z,153
2023-05-19T01:02:14.000Z,151
2023-05-19T01:03:31.000Z,153
2023-05-19T01:06:03.000Z,148
2023-05-19T01:07:19.000Z,150
2023-05-19T01:08:36.000Z,152
2023-05-19T01:09:52.000Z,149
2023-05-19T01:11:08.000Z,151
2023-05-19T01:12:24.000Z,153
2023-05-19T01:13:40.000Z,151
2023-05-19T01:14:57.000Z,149
2023-05-19T01:16:13.000Z,152
2023-05-19T01:17:28.000Z,153
2023-05-19T01:18:44.000Z,153
2023-05-19T01:20:01.000Z,152
2023-05-19T01:21:17.000Z,152
2023-05-19T01:22:33.000Z,154
2023-05-19T01:23:49.000Z,150
2023-05-19T01:25:06.000Z,150
2023-05-19T01:26:21.000Z,151
2023-05-19T01:27:36.000Z,151
2023-05-19T01:28:52.000Z,151
2023-05-19T01:30:09.000Z,149
2023-05-19T01:31:25.000Z,152
2023-05-19T01:32:41.000Z,150
2023-05-19T01:33:57.000Z,153
2023-05-19T01:35:14.000Z,152
2023-05-19T01:36:30.000Z,152
2023-05-19T01:37:46.000Z,151
2023-05-19T01:39:01.000Z,149
2023-05-19T01:40:17.000Z,151
2023-05-19T01:41:33.000Z,151
2023-05-19T01:44:05.000Z,151
2023-05-19T01:45:21.000Z,149
2023-05-19T01:46:38.000Z,152
2023-05-19T01:47:54.000Z,151
2023-05-19T01:49:10.000Z,149
2023-05-19T01:50:26.000Z,150
2023-05-19T01:51:43.000Z,147
2023-05-19T01:52:59.000Z,150
2023-05-19T01:54:15.000Z,151
2023-05-19T01:56:48.000Z,148
2023-05-19T01:58:03.000Z,151
2023-05-19T01:59:18.000Z,151
2023-05-19T02:00:34.000Z,151
2023-05-19T02:01:51.000Z,151
2023-05-19T02:03:07.000Z,149
2023-05-19T02:04:23.000Z,148
2023-05-19T02:05:39.000Z,151
2023-05-19T02:06:55.000Z,151
2023-05-19T02:08:12.000Z,147
2023-05-19T02:09:28.000Z,145
2023-05-19T02:10:43.000Z,145
2023-05-19T02:11:58.000Z,148
2023-05-19T02:13:15.000Z,147
2023-05-19T02:14:31.000Z,145
2023-05-19T02:15:47.000Z,148
2023-05-19T02:17:03.000Z,147
2023-05-19T02:18:20.000Z,145
2023-05-19T02:19:36.000Z,148
2023-05-19T02:22:08.000Z,142
2023-05-19T02:23:25.000Z,144
2023-05-19T02:24:41.000Z,144
2023-05-19T02:25:57.000Z,147
2023-05-19T02:27:13.000Z,145
2023-05-19T02:28:29.000Z,144
2023-05-19T02:29:45.000Z,146
2023-05-19T02:31:01.000Z,146
2023-05-19T02:32:17.000Z,146
2023-05-19T02:33:33.000Z,145
2023-05-19T02:34:50.000Z,144
2023-05-19T02:36:06.000Z,143
2023-05-19T02:37:22.000Z,144
2023-05-19T02:38:38.000Z,145
2023-05-19T02:39:55.000Z,142
2023-05-19T02:41:11.000Z,144
2023-05-19T02:42:27.000Z,143
2023-05-19T02:43:43.000Z,144
2023-05-19T02:44:59.000Z,145
2023-05-19T02:47:31.000Z,145
2023-05-19T02:48:47.000Z,141
2023-05-19T02:50:04.000Z,146
2023-05-19T02:51:20.000Z,145
2023-05-19T02:52:36.000Z,144
2023-05-19T02:53:52.000Z,144
2023-05-19T02:55:08.000Z,144
2023-05-19T02:56:25.000Z,146
2023-05-19T02:57:41.000Z,147
2023-05-19T03:01:30.000Z,147
2023-05-19T03:02:45.000Z,151
2023-05-19T03:04:00.000Z,152
2023-05-19T03:05:16.000Z,153
2023-05-19T03:06:33.000Z,157
2023-05-19T03:07:49.000Z,160
2023-05-19T03:09:05.000Z,127
2023-05-19T03:10:21.000Z,19
2023-05-19T03:12:54.000Z,25
2023-05-19T03:14:10.000Z,31
2023-05-19T03:15:25.000Z,34
2023-05-19T03:16:41.000Z,45
2023-05-19T03:17:58.000Z,50
2023-05-19T03:19:14.000Z,57
2023-05-19T03:20:30.000Z,67
2023-05-19T03:21:46.000Z,76
2023-05-19T03:23:03.000Z,85
2023-05-19T03:24:19.000Z,95
2023-05-19T03:25:35.000Z,110
2023-05-19T03:26:51.000Z,120
2023-05-19T03:28:08.000Z,136
2023-05-19T03:29:23.000Z,151
2023-05-19T03:30:38.000Z,167
2023-05-19T03:31:54.000Z,182
2023-05-19T03:33:11.000Z,202
2023-05-19T03:34:27.000Z,215
2023-05-19T03:35:43.000Z,237
2023-05-19T03:38:16.000Z,284
2023-05-19T03:39:32.000Z,310
2023-05-19T03:40:48.000Z,271
2023-05-19T03:42:04.000Z,496
2023-05-19T03:43:20.000Z,395
2023-05-19T03:44:37.000Z,426
2023-05-19T03:45:53.000Z,456
2023-05-19T03:47:08.000Z,491
2023-05-19T03:48:24.000Z,524
2023-05-19T03:49:41.000Z,559
2023-05-19T03:50:57.000Z,594
2023-05-19T03:52:13.000Z,634
2023-05-19T03:53:29.000Z,670
2023-05-19T03:54:46.000Z,709
2023-05-19T03:56:02.000Z,752
2023-05-19T03:57:18.000Z,795
2023-05-19T03:58:34.000Z,832
2023-05-19T03:59:51.000Z,874
2023-05-19T04:01:07.000Z,912
2023-05-19T04:03:39.000Z,994
2023-05-19T04:04:54.000Z,1025
2023-05-19T04:06:11.000Z,1059
2023-05-19T04:07:27.000Z,1091
2023-05-19T04:08:43.000Z,1124
2023-05-19T04:09:59.000Z,1155
2023-05-19T04:11:16.000Z,1188
2023-05-19T04:12:32.000Z,1216
2023-05-19T04:13:48.000Z,1245
2023-05-19T04:15:04.000Z,1275
2023-05-19T04:16:21.000Z,1309
2023-05-19T04:17:37.000Z,1345
2023-05-19T04:18:53.000Z,1383
2023-05-19T04:20:09.000Z,1418
2023-05-19T04:21:25.000Z,1450
2023-05-19T04:22:41.000Z,1485
2023-05-19T04:23:57.000Z,1515
2023-05-19T04:25:13.000Z,1544
2023-05-19T04:26:29.000Z,1574
2023-05-19T04:29:02.000Z,1641
2023-05-19T04:30:18.000Z,1669
2023-05-19T04:31:34.000Z,1702
2023-05-19T04:32:51.000Z,1735
2023-05-19T04:34:07.000Z,1768
2023-05-19T04:35:23.000Z,1802
2023-05-19T04:36:39.000Z,1834
2023-05-19T04:37:55.000Z,1864
2023-05-19T04:39:11.000Z,1901
2023-05-19T04:43:00.000Z,2007
2023-05-19T04:44:15.000Z,2042
2023-05-19T04:45:30.000Z,2076
2023-05-19T04:46:46.000Z,2109
2023-05-19T04:48:03.000Z,2144
2023-05-19T04:49:19.000Z,2181
2023-05-19T04:50:35.000Z,2217
2023-05-19T04:51:51.000Z,2250
2023-05-19T04:55:40.000Z,2354
2023-05-19T04:56:56.000Z,2388
2023-05-19T04:58:12.000Z,2422
2023-05-19T04:59:28.000Z,2457
2023-05-19T05:00:43.000Z,2489
2023-05-19T05:01:59.000Z,2523
2023-05-19T05:03:15.000Z,2554
2023-05-19T05:04:32.000Z,2588
2023-05-19T05:07:04.000Z,2652
2023-05-19T05:08:20.000Z,2685
2023-05-19T05:09:37.000Z,2719
2023-05-19T05:10:53.000Z,2748
2023-05-19T05:12:09.000Z,2781
2023-05-19T05:13:25.000Z,2814
2023-05-19T05:14:41.000Z,2845
2023-05-19T05:15:58.000Z,2871
2023-05-19T05:17:13.000Z,2897
2023-05-19T05:19:45.000Z,2937
2023-05-19T05:21:02.000Z,2955
2023-05-19T05:22:18.000Z,2972
2023-05-19T05:23:34.000Z,2985
2023-05-19T05:24:50.000Z,2996
2023-05-19T05:26:07.000Z,3012
2023-05-19T05:27:23.000Z,3026
2023-05-19T05:28:39.000Z,3034
2023-05-19T05:29:55.000Z,3042
2023-05-19T05:31:12.000Z,3051
2023-05-19T05:32:28.000Z,3050
2023-05-19T05:33:43.000Z,3052
2023-05-19T05:34:58.000Z,3054
2023-05-19T05:36:15.000Z,3060
2023-05-19T05:37:31.000Z,3065
2023-05-19T05:38:47.000Z,3070
2023-05-19T05:40:03.000Z,3073
2023-05-19T05:41:19.000Z,3080
2023-05-19T05:42:36.000Z,3089
2023-05-19T05:45:08.000Z,3104
2023-05-19T05:46:24.000Z,3109
2023-05-19T05:47:41.000Z,3113
2023-05-19T05:48:57.000Z,3111
2023-05-19T05:50:13.000Z,3105
2023-05-19T05:51:29.000Z,3085
2023-05-19T05:52:45.000Z,3061
2023-05-19T05:54:01.000Z,3016
2023-05-19T05:55:17.000Z,2985
2023-05-19T05:56:33.000Z,2981
2023-05-19T05:57:50.000Z,2973
2023-05-19T05:59:06.000Z,2985
2023-05-19T06:00:21.000Z,3026
2023-05-19T06:01:36.000Z,3054
2023-05-19T06:02:53.000Z,3073
2023-05-19T06:04:09.000Z,3123
2023-05-19T06:05:25.000Z,3154
2023-05-19T06:06:41.000Z,3192
2023-05-19T06:07:57.000Z,3224
2023-05-19T06:09:14.000Z,3227
2023-05-19T06:10:30.000Z,3194
2023-05-19T06:11:46.000Z,3194
2023-05-19T06:13:02.000Z,3245
2023-05-19T06:14:19.000Z,3243
2023-05-19T06:15:35.000Z,3222
2023-05-19T06:16:51.000Z,3255
2023-05-19T06:18:06.000Z,3343
2023-05-19T06:19:23.000Z,3389
2023-05-19T06:20:39.000Z,3429
2023-05-19T06:21:55.000Z,3477
2023-05-19T06:23:11.000Z,3507
2023-05-19T06:24:27.000Z,3512
2023-05-19T06:25:44.000Z,3519
2023-05-19T06:27:00.000Z,3542
2023-05-19T06:28:16.000Z,3546
2023-05-19T06:29:32.000Z,3541
2023-05-19T06:30:49.000Z,3553
2023-05-19T06:32:05.000Z,3567
2023-05-19T06:33:21.000Z,3575
2023-05-19T06:34:36.000Z,3570
2023-05-19T06:35:53.000Z,3559
2023-05-19T06:38:25.000Z,3553
2023-05-19T06:39:41.000Z,3555
2023-05-19T06:40:58.000Z,3561
2023-05-19T06:42:14.000Z,3566
2023-05-19T06:43:30.000Z,3570
2023-05-19T06:44:46.000Z,3575
2023-05-19T06:46:02.000Z,3582
2023-05-19T06:48:35.000Z,3592
2023-05-19T06:49:51.000Z,3596
2023-05-19T06:51:06.000Z,3594
2023-05-19T06:52:23.000Z,3585
2023-05-19T06:53:39.000Z,3581
2023-05-19T06:54:55.000Z,3579
2023-05-19T06:56:11.000Z,3581
2023-05-19T06:57:28.000Z,3588
2023-05-19T06:58:44.000Z,3594
2023-05-19T07:00:00.000Z,3609
2023-05-19T07:01:16.000Z,3618
2023-05-19T07:02:33.000Z,3611
2023-05-19T07:03:49.000Z,3603
2023-05-19T07:06:21.000Z,3560
2023-05-19T07:07:36.000Z,3584
2023-05-19T07:08:53.000Z,3596
2023-05-19T07:10:09.000Z,3605
2023-05-19T07:11:25.000Z,3623
2023-05-19T07:13:58.000Z,3653
2023-05-19T07:15:13.000Z,3651
2023-05-19T07:16:28.000Z,3649
2023-05-19T07:17:44.000Z,3654
2023-05-19T07:19:01.000Z,3653
2023-05-19T07:20:17.000Z,3650
2023-05-19T07:21:33.000Z,3655
2023-05-19T07:22:49.000Z,3655
2023-05-19T07:24:06.000Z,3650
2023-05-19T07:25:22.000Z,3656
2023-05-19T07:26:38.000Z,3658
2023-05-19T07:27:53.000Z,3653
2023-05-19T07:29:10.000Z,3647
2023-05-19T07:30:25.000Z,3643
2023-05-19T07:31:41.000Z,3642
2023-05-19T07:32:57.000Z,3632
2023-05-19T07:34:14.000Z,3614
2023-05-19T07:35:30.000Z,3608
2023-05-19T07:36:46.000Z,3616
2023-05-19T07:39:18.000Z,3641
2023-05-19T07:40:35.000Z,3644
2023-05-19T07:43:07.000Z,3630
2023-05-19T07:44:22.000Z,3623
2023-05-19T07:45:38.000Z,3625
2023-05-19T07:46:54.000Z,3618
2023-05-19T07:48:10.000Z,3610
2023-05-19T07:49:26.000Z,3611
2023-05-19T07:50:43.000Z,3615
2023-05-19T07:51:59.000Z,3620
2023-05-19T07:53:15.000Z,3625
2023-05-19T07:54:31.000Z,3630
2023-05-19T07:55:48.000Z,3636
2023-05-19T07:57:03.000Z,3654
2023-05-19T07:58:18.000Z,3686
2023-05-19T07:59:34.000Z,3710
2023-05-19T08:00:51.000Z,3716
2023-05-19T08:02:07.000Z,3720
2023-05-19T08:04:39.000Z,3738
2023-05-19T08:05:55.000Z,3780
2023-05-19T08:07:12.000Z,3841
2023-05-19T08:08:28.000Z,3961
2023-05-19T08:09:44.000Z,3970
2023-05-19T08:11:00.000Z,3979
2023-05-19T08:12:17.000Z,3982
2023-05-19T08:13:33.000Z,3993
2023-05-19T08:14:48.000Z,4000
2023-05-19T08:16:04.000Z,4016
2023-05-19T08:17:21.000Z,4010
2023-05-19T08:18:37.000Z,3798
2023-05-19T08:19:53.000Z,3537
2023-05-19T08:21:09.000Z,3730
2023-05-19T08:22:26.000Z,4043
2023-05-19T08:23:42.000Z,4238
2023-05-19T08:24:58.000Z,4367
2023-05-19T08:26:14.000Z,4632
2023-05-19T08:27:30.000Z,4928
2023-05-19T08:28:47.000Z,5030
2023-05-19T08:30:03.000Z,5164
2023-05-19T08:31:18.000Z,6049
2023-05-19T08:32:34.000Z,7511
2023-05-19T08:33:51.000Z,7273
2023-05-19T08:36:23.000Z,8104
2023-05-19T08:37:39.000Z,9625
2023-05-19T08:38:56.000Z,8912
2023-05-19T08:40:12.000Z,8360
2023-05-19T08:41:28.000Z,7523
2023-05-19T08:42:44.000Z,8017
2023-05-19T08:44:00.000Z,7336
2023-05-19T08:45:17.000Z,8002
2023-05-19T08:46:33.000Z,8236
2023-05-19T08:47:48.000Z,8503
2023-05-19T08:49:04.000Z,8552
2023-05-19T08:50:21.000Z,7655
2023-05-19T08:51:37.000Z,7839
2023-05-19T08:52:53.000Z,7065
2023-05-19T08:54:09.000Z,7653
2023-05-19T08:55:26.000Z,8742
2023-05-19T08:56:42.000Z,9113
2023-05-19T08:57:58.000Z,8103
2023-05-19T08:59:14.000Z,7087
2023-05-19T09:00:31.000Z,6677
2023-05-19T09:01:47.000Z,6322
2023-05-19T09:03:03.000Z,6734
2023-05-19T09:04:18.000Z,7173
2023-05-19T09:05:35.000Z,8324
2023-05-19T09:08:07.000Z,8040
2023-05-19T09:09:23.000Z,8124
2023-05-19T09:10:39.000Z,7757
2023-05-19T09:11:56.000Z,7458
2023-05-19T09:13:12.000Z,7496
2023-05-19T09:14:28.000Z,8342
2023-05-19T09:15:44.000Z,8993
2023-05-19T09:17:01.000Z,8569
2023-05-19T09:18:17.000Z,7834
2023-05-19T09:20:49.000Z,7709
2023-05-19T09:22:05.000Z,9143
2023-05-19T09:23:21.000Z,9040
2023-05-19T09:24:37.000Z,8613
2023-05-19T09:25:53.000Z,8508
2023-05-19T09:27:09.000Z,7904
2023-05-19T09:28:26.000Z,7640
2023-05-19T09:29:42.000Z,7736
2023-05-19T09:30:58.000Z,7720
2023-05-19T09:32:14.000Z,7326
2023-05-19T09:33:31.000Z,7291
2023-05-19T09:34:47.000Z,7196
2023-05-19T09:36:03.000Z,6975
2023-05-19T09:37:19.000Z,7644
2023-05-19T09:38:35.000Z,8374
2023-05-19T09:39:51.000Z,8985
2023-05-19T09:41:07.000Z,8631
2023-05-19T09:42:23.000Z,8205
2023-05-19T09:43:40.000Z,8037
2023-05-19T09:44:56.000Z,8453
2023-05-19T09:46:12.000Z,9101
2023-05-19T09:47:28.000Z,8686
2023-05-19T09:48:44.000Z,8290
2023-05-19T09:50:01.000Z,8442
2023-05-19T09:51:17.000Z,8502
2023-05-19T09:52:33.000Z,8482
2023-05-19T09:53:49.000Z,9369
2023-05-19T09:55:05.000Z,8734
2023-05-19T09:56:21.000Z,7998
2023-05-19T09:57:37.000Z,7331
2023-05-19T09:58:53.000Z,7234
2023-05-19T10:00:10.000Z,7293
2023-05-19T10:01:26.000Z,7404
2023-05-19T10:02:42.000Z,7696
2023-05-19T10:03:58.000Z,7643
2023-05-19T10:05:15.000Z,7602
2023-05-19T10:06:31.000Z,7612
2023-05-19T10:07:47.000Z,6875
2023-05-19T10:09:03.000Z,7771
2023-05-19T10:10:19.000Z,9291
2023-05-19T10:11:36.000Z,8822
2023-05-19T10:12:51.000Z,8614
2023-05-19T10:14:07.000Z,8371
2023-05-19T10:15:23.000Z,8764
2023-05-19T10:16:40.000Z,8211
2023-05-19T10:17:56.000Z,7962
2023-05-19T10:19:12.000Z,7992
2023-05-19T10:20:28.000Z,8075
2023-05-19T10:21:45.000Z,8982
2023-05-19T10:24:17.000Z,7148
2023-05-19T10:26:50.000Z,6749
2023-05-19T10:28:06.000Z,6878
2023-05-19T10:29:21.000Z,6910
2023-05-19T10:30:37.000Z,6423
2023-05-19T10:31:53.000Z,5907
2023-05-19T10:33:10.000Z,5552
2023-05-19T10:34:26.000Z,5458
2023-05-19T10:35:42.000Z,5399
2023-05-19T10:36:58.000Z,5415
2023-05-19T10:38:15.000Z,5381
2023-05-19T10:39:31.000Z,5227
2023-05-19T10:40:47.000Z,5049
2023-05-19T10:42:03.000Z,5092
2023-05-19T10:43:20.000Z,5563
2023-05-19T10:44:36.000Z,5743
2023-05-19T10:45:51.000Z,5828
2023-05-19T10:47:07.000Z,5853
2023-05-19T10:48:24.000Z,5750
2023-05-19T10:49:40.000Z,5719
2023-05-19T10:50:56.000Z,5677
2023-05-19T10:52:12.000Z,5503
2023-05-19T10:53:28.000Z,5436
2023-05-19T10:54:45.000Z,5474
2023-05-19T10:56:01.000Z,5509
2023-05-19T10:57:17.000Z,5662
2023-05-19T10:58:33.000Z,6222
2023-05-19T10:59:50.000Z,6976
2023-05-19T11:01:06.000Z,7476
2023-05-19T11:02:21.000Z,7675
2023-05-19T11:03:37.000Z,7836
2023-05-19T11:04:54.000Z,9058
2023-05-19T11:06:10.000Z,9452
2023-05-19T11:07:26.000Z,9167
2023-05-19T11:08:42.000Z,8652
2023-05-19T11:09:59.000Z,8156
2023-05-19T11:11:15.000Z,7887
2023-05-19T11:12:31.000Z,7773
2023-05-19T11:13:47.000Z,7682
2023-05-19T11:15:03.000Z,7596
2023-05-19T11:16:20.000Z,7798
2023-05-19T11:17:36.000Z,8014
2023-05-19T11:18:51.000Z,8092
2023-05-19T11:20:07.000Z,8215
2023-05-19T11:21:24.000Z,8582
2023-05-19T11:22:40.000Z,9974
2023-05-19T11:23:56.000Z,10722
2023-05-19T11:25:12.000Z,10109
2023-05-19T11:26:29.000Z,9989
2023-05-19T11:27:45.000Z,10038
2023-05-19T11:29:01.000Z,11647
2023-05-19T11:30:17.000Z,13257
2023-05-19T11:31:34.000Z,12503
2023-05-19T11:32:50.000Z,11667
2023-05-19T11:34:06.000Z,12398
2023-05-19T11:35:21.000Z,11250
2023-05-19T11:36:37.000Z,10356
2023-05-19T11:37:54.000Z,10951
2023-05-19T11:39:10.000Z,9963
2023-05-19T11:40:26.000Z,11021
2023-05-19T11:41:42.000Z,12219
2023-05-19T11:42:59.000Z,12309
2023-05-19T11:44:15.000Z,12466
2023-05-19T11:45:30.000Z,13113
2023-05-19T11:46:46.000Z,11742
2023-05-19T11:48:03.000Z,10568
2023-05-19T11:49:19.000Z,10283
2023-05-19T11:50:35.000Z,10053
2023-05-19T11:51:50.000Z,10247
2023-05-19T11:53:06.000Z,11728
2023-05-19T11:54:22.000Z,12389
2023-05-19T11:55:38.000Z,13236
2023-05-19T11:56:54.000Z,14561
2023-05-19T11:58:11.000Z,14772
2023-05-19T11:59:27.000Z,13389
2023-05-19T12:00:43.000Z,12934
2023-05-19T12:01:59.000Z,12302
2023-05-19T12:03:15.000Z,11938
2023-05-19T12:04:32.000Z,10974
2023-05-19T12:05:48.000Z,11752
2023-05-19T12:07:04.000Z,11596
2023-05-19T12:08:20.000Z,11402
2023-05-19T12:09:36.000Z,11383
2023-05-19T12:10:52.000Z,10896
2023-05-19T12:12:08.000Z,10880
2023-05-19T12:13:24.000Z,11485
2023-05-19T12:14:41.000Z,11503
2023-05-19T12:15:57.000Z,11280
2023-05-19T12:17:13.000Z,12310
2023-05-19T12:18:29.000Z,12972
2023-05-19T12:19:46.000Z,13125
2023-05-19T12:21:02.000Z,12052
2023-05-19T12:22:18.000Z,12706
2023-05-19T12:23:34.000Z,11382
2023-05-19T12:24:50.000Z,12277
2023-05-19T12:26:06.000Z,13724
2023-05-19T12:27:22.000Z,13352
2023-05-19T12:28:38.000Z,12730
2023-05-19T12:29:54.000Z,12925
2023-05-19T12:31:11.000Z,12192
2023-05-19T12:32:27.000Z,11253
2023-05-19T12:33:43.000Z,10562
2023-05-19T12:34:59.000Z,11426
2023-05-19T12:36:16.000Z,12812
2023-05-19T12:37:32.000Z,12350
2023-05-19T12:38:48.000Z,11768
2023-05-19T12:40:04.000Z,11190
2023-05-19T12:41:20.000Z,11711
2023-05-19T12:42:35.000Z,13095
2023-05-19T12:43:51.000Z,13481
2023-05-19T12:45:07.000Z,15069
2023-05-19T12:46:23.000Z,15676
2023-05-19T12:47:40.000Z,14227
2023-05-19T12:48:56.000Z,13734
2023-05-19T12:50:12.000Z,13109
2023-05-19T12:51:28.000Z,12919
2023-05-19T12:52:45.000Z,13899
2023-05-19T12:54:01.000Z,12752
2023-05-19T12:56:33.000Z,12896
2023-05-19T12:57:50.000Z,12462
2023-05-19T12:59:05.000Z,13246
2023-05-19T13:00:21.000Z,13012
2023-05-19T13:01:37.000Z,15113
2023-05-19T13:02:54.000Z,14932
2023-05-19T13:04:10.000Z,13582
2023-05-19T13:05:26.000Z,12606
2023-05-19T13:06:42.000Z,11610
2023-05-19T13:07:58.000Z,9919
2023-05-19T13:09:15.000Z,13783
2023-05-19T13:10:31.000Z,12696
2023-05-19T13:11:47.000Z,7920
2023-05-19T13:13:03.000Z,6663
2023-05-19T13:14:20.000Z,77819
2023-05-19T13:15:35.000Z,78266
2023-05-19T13:16:51.000Z,77958
2023-05-19T13:18:07.000Z,63219
2023-05-19T13:19:24.000Z,17910
2023-05-19T13:20:40.000Z,17078
2023-05-19T13:21:56.000Z,14713
2023-05-19T13:23:12.000Z,14815
2023-05-19T13:24:29.000Z,13361
2023-05-19T13:25:45.000Z,12870
2023-05-19T13:27:01.000Z,12894
2023-05-19T13:28:17.000Z,12130
2023-05-19T13:29:33.000Z,5985
2023-05-19T13:30:50.000Z,78296
2023-05-19T13:32:05.000Z,75011
2023-05-19T13:33:21.000Z,75047
2023-05-19T13:34:37.000Z,75464
2023-05-19T13:37:10.000Z,75755
2023-05-19T13:38:26.000Z,59933
2023-05-19T13:39:42.000Z,15616
2023-05-19T13:40:59.000Z,14075
2023-05-19T13:42:15.000Z,6486
2023-05-19T13:43:31.000Z,75802
2023-05-19T13:44:47.000Z,74482
2023-05-19T13:47:20.000Z,73641
2023-05-19T13:48:35.000Z,69562
2023-05-19T13:51:07.000Z,16182
2023-05-19T13:52:23.000Z,15781
2023-05-19T13:53:38.000Z,9464
2023-05-19T13:54:54.000Z,66035
2023-05-19T13:56:10.000Z,25899
2023-05-19T13:57:27.000Z,16801
2023-05-19T13:59:59.000Z,13251
2023-05-19T14:01:15.000Z,11988
2023-05-19T14:02:32.000Z,15963
2023-05-19T14:03:48.000Z,13965
2023-05-19T14:05:04.000Z,12000
2023-05-19T14:06:20.000Z,11301
2023-05-19T14:07:37.000Z,11615
2023-05-19T14:08:53.000Z,11904
2023-05-19T14:10:08.000Z,11293
2023-05-19T14:11:24.000Z,11261
2023-05-19T14:12:41.000Z,4110
2023-05-19T14:13:57.000Z,9896
2023-05-19T14:15:13.000Z,75245
2023-05-19T14:16:29.000Z,75509
2023-05-19T14:17:45.000Z,78935
2023-05-19T14:19:01.000Z,75756
2023-05-19T14:20:16.000Z,75529
2023-05-19T14:21:32.000Z,80406
2023-05-19T14:22:48.000Z,76987
2023-05-19T14:24:05.000Z,75228
2023-05-19T14:25:21.000Z,75223
2023-05-19T14:26:37.000Z,74828
2023-05-19T14:27:53.000Z,62948
2023-05-19T14:29:10.000Z,20187
2023-05-19T14:30:26.000Z,14115
2023-05-19T14:31:42.000Z,12568
2023-05-19T14:32:58.000Z,11568
2023-05-19T14:34:15.000Z,11104
2023-05-19T14:35:31.000Z,11688
2023-05-19T14:36:46.000Z,12277
2023-05-19T14:38:02.000Z,6555
2023-05-19T14:39:18.000Z,75637
2023-05-19T14:40:35.000Z,73150
2023-05-19T14:41:51.000Z,62118
2023-05-19T14:43:07.000Z,16592
2023-05-19T14:44:23.000Z,15484
2023-05-19T14:45:40.000Z,15666
2023-05-19T14:46:56.000Z,14576
2023-05-19T14:48:12.000Z,13563
2023-05-19T14:49:28.000Z,12787
2023-05-19T14:50:45.000Z,12055
2023-05-19T14:52:01.000Z,12849
2023-05-19T14:53:16.000Z,5225
2023-05-19T14:54:32.000Z,79526
2023-05-19T14:55:49.000Z,82108
2023-05-19T14:57:05.000Z,82164
2023-05-19T14:58:21.000Z,80662
2023-05-19T14:59:37.000Z,75254
2023-05-19T15:00:53.000Z,75231
2023-05-19T15:03:26.000Z,22357
2023-05-19T15:04:42.000Z,13626
2023-05-19T15:05:58.000Z,61617
2023-05-19T15:07:15.000Z,12150
2023-05-19T15:08:31.000Z,20354
2023-05-19T15:09:46.000Z,12987
2023-05-19T15:11:02.000Z,11885
2023-05-19T15:12:19.000Z,11662
2023-05-19T15:13:35.000Z,5328
2023-05-19T15:14:51.000Z,83322
2023-05-19T15:16:07.000Z,81675
2023-05-19T15:17:24.000Z,80489
2023-05-19T15:18:40.000Z,82660
2023-05-19T15:19:56.000Z,79775
2023-05-19T15:21:12.000Z,79283
2023-05-19T15:22:28.000Z,80633
2023-05-19T15:23:45.000Z,80294
2023-05-19T15:25:01.000Z,81396
2023-05-19T15:27:32.000Z,81068
2023-05-19T15:28:49.000Z,82678
2023-05-19T15:30:05.000Z,80953
2023-05-19T15:31:21.000Z,69963
2023-05-19T15:32:37.000Z,28906
2023-05-19T15:33:54.000Z,13493
2023-05-19T15:35:10.000Z,10484
2023-05-19T15:36:26.000Z,10510
2023-05-19T15:37:42.000Z,6970
2023-05-19T15:38:58.000Z,79508
2023-05-19T15:41:29.000Z,77758
2023-05-19T15:44:02.000Z,83072
2023-05-19T15:45:18.000Z,83043
2023-05-19T15:46:34.000Z,74281
2023-05-19T15:47:50.000Z,82551
2023-05-19T15:49:06.000Z,83130
2023-05-19T15:50:23.000Z,82550
2023-05-19T15:51:39.000Z,81854
2023-05-19T15:52:55.000Z,80794
2023-05-19T15:54:10.000Z,63821
2023-05-19T15:55:26.000Z,20155
2023-05-19T15:56:42.000Z,4865
2023-05-19T15:57:58.000Z,26992
2023-05-19T15:59:14.000Z,16261
2023-05-19T16:00:30.000Z,15429
2023-05-19T16:01:46.000Z,14481
2023-05-19T16:03:02.000Z,4963
2023-05-19T16:04:18.000Z,29444
2023-05-19T16:05:35.000Z,60254
2023-05-19T16:06:50.000Z,12884
2023-05-19T16:08:05.000Z,5224
2023-05-19T16:09:21.000Z,77195
2023-05-19T16:10:38.000Z,75841
2023-05-19T16:11:54.000Z,71735
2023-05-19T16:13:10.000Z,28140
2023-05-19T16:14:26.000Z,22105
2023-05-19T16:15:42.000Z,77847
2023-05-19T16:16:59.000Z,75545
2023-05-19T16:18:15.000Z,76115
2023-05-19T16:19:31.000Z,77712
2023-05-19T16:20:47.000Z,77167
2023-05-19T16:23:20.000Z,75565
2023-05-19T16:24:35.000Z,73789
2023-05-19T16:25:51.000Z,37621
2023-05-19T16:27:08.000Z,34860
2023-05-19T16:28:24.000Z,30378
2023-05-19T16:29:40.000Z,29627
2023-05-19T16:30:56.000Z,31346
2023-05-19T16:32:13.000Z,31929
2023-05-19T16:33:29.000Z,23415
2023-05-19T16:34:45.000Z,11386
2023-05-19T16:36:01.000Z,9304
2023-05-19T16:37:17.000Z,8621
2023-05-19T16:38:34.000Z,8117
2023-05-19T16:39:50.000Z,7839
2023-05-19T16:41:05.000Z,7783
2023-05-19T16:42:21.000Z,7861
2023-05-19T16:43:38.000Z,3081
2023-05-19T16:44:54.000Z,21088
2023-05-19T16:46:10.000Z,24647
2023-05-19T16:47:26.000Z,24467
2023-05-19T16:48:43.000Z,22488
2023-05-19T16:49:59.000Z,25199
2023-05-19T16:51:15.000Z,23165
2023-05-19T16:52:31.000Z,25516
2023-05-19T16:53:48.000Z,23136
2023-05-19T16:55:04.000Z,24983
2023-05-19T16:56:20.000Z,25535
2023-05-19T16:57:36.000Z,28276
2023-05-19T16:58:52.000Z,25803
2023-05-19T17:00:08.000Z,21514
2023-05-19T17:01:24.000Z,23747
2023-05-19T17:02:40.000Z,25482
2023-05-19T17:03:56.000Z,19333
2023-05-19T17:05:13.000Z,23572
2023-05-19T17:06:29.000Z,33768
2023-05-19T17:07:45.000Z,25568
2023-05-19T17:09:01.000Z,6908
2023-05-19T17:10:18.000Z,30122
2023-05-19T17:11:34.000Z,28418
2023-05-19T17:12:50.000Z,75425
2023-05-19T17:14:06.000Z,75652
2023-05-19T17:15:22.000Z,75039
2023-05-19T17:16:38.000Z,78391
2023-05-19T17:17:54.000Z,80247
2023-05-19T17:19:10.000Z,74926
2023-05-19T17:20:26.000Z,84303
2023-05-19T17:21:43.000Z,82429
2023-05-19T17:22:59.000Z,81877
2023-05-19T17:24:15.000Z,77977
2023-05-19T17:25:31.000Z,73840
2023-05-19T17:26:48.000Z,27339
2023-05-19T17:28:04.000Z,24206
2023-05-19T17:29:20.000Z,24661
2023-05-19T17:30:36.000Z,24591
2023-05-19T17:31:52.000Z,20684
2023-05-19T17:33:08.000Z,22278
2023-05-19T17:34:24.000Z,25395
2023-05-19T17:35:40.000Z,20673
2023-05-19T17:36:57.000Z,25125
2023-05-19T17:38:13.000Z,22529
2023-05-19T17:39:29.000Z,22942
2023-05-19T17:40:45.000Z,22938
2023-05-19T17:42:01.000Z,18603
2023-05-19T17:43:18.000Z,24100
2023-05-19T17:44:34.000Z,18430
2023-05-19T17:45:50.000Z,13155